Falkoping Airport


Codes: ESGK/
Name: Falkoping Airport
City: Falkoping
Country: Sweden
Elevation: 785 ft.

Photos at Falkoping Airport


   Photos courtesy of SpottingLog. You can add your own sightings and photos by signing up for a free trial today.



No photos found.

Weather at Falkoping Airport


Time (UTC)DescriptionTempratureWindCloud coverageVisibilityPressureHumidity
18-Apr-2024 00:00Light Snow2°C2 mph, N100%0m1012hPa96%
18-Apr-2024 03:00Snow1°C4 mph, N100%0m1012hPa97%
18-Apr-2024 06:00Light Snow0°C4 mph, NE99%6632m1014hPa93%
18-Apr-2024 09:00Light Snow2°C7 mph, NE100%9390m1014hPa81%
18-Apr-2024 12:00Light Snow3°C7 mph, NE99%2113m1014hPa69%
18-Apr-2024 15:00Light Snow3°C7 mph, NE97%10000m1014hPa73%
18-Apr-2024 18:00Light Snow0°C4 mph, SE71%10000m1013hPa85%
18-Apr-2024 21:00Clear Sky-2°C4 mph, SE10%10000m1012hPa93%
19-Apr-2024 00:00Scattered Clouds-2°C4 mph, SE48%10000m1011hPa97%
19-Apr-2024 03:00Overcast Clouds-3°C4 mph, E88%10000m1009hPa96%
19-Apr-2024 06:00Overcast Clouds-0°C9 mph, E91%10000m1009hPa84%
19-Apr-2024 09:00Overcast Clouds2°C11 mph, E97%10000m1008hPa69%
19-Apr-2024 12:00Light Rain3°C9 mph, E99%10000m1008hPa63%
19-Apr-2024 15:00Light Snow4°C9 mph, NE98%10000m1008hPa58%
19-Apr-2024 18:00Light Snow1°C7 mph, NE91%10000m1011hPa90%
19-Apr-2024 21:00Overcast Clouds-1°C4 mph, NE97%2048m1013hPa98%
20-Apr-2024 00:00Light Snow-1°C7 mph, NE88%10000m1014hPa93%
20-Apr-2024 03:00Scattered Clouds-4°C4 mph, N41%10000m1016hPa93%
20-Apr-2024 06:00Scattered Clouds-1°C7 mph, N27%10000m1017hPa61%
20-Apr-2024 09:00Few Clouds3°C7 mph, N15%10000m1018hPa52%
20-Apr-2024 12:00Scattered Clouds5°C9 mph, N47%10000m1020hPa45%
20-Apr-2024 15:00Overcast Clouds5°C7 mph, N86%10000m1021hPa45%
20-Apr-2024 18:00Broken Clouds1°C2 mph, NE61%10000m1023hPa71%
20-Apr-2024 21:00Few Clouds-1°C2 mph, NW15%10000m1025hPa78%
21-Apr-2024 00:00Scattered Clouds-1°C2 mph, NE40%10000m1027hPa80%
21-Apr-2024 03:00Broken Clouds-1°C4 mph, E82%10000m1029hPa85%
21-Apr-2024 06:00Overcast Clouds1°C7 mph, E91%10000m1031hPa62%
21-Apr-2024 09:00Overcast Clouds4°C9 mph, NE93%10000m1032hPa51%
21-Apr-2024 12:00Overcast Clouds5°C11 mph, E92%10000m1033hPa43%
21-Apr-2024 15:00Broken Clouds5°C11 mph, E65%10000m1033hPa43%
21-Apr-2024 18:00Broken Clouds2°C7 mph, NE57%10000m1034hPa60%
21-Apr-2024 21:00Few Clouds-1°C7 mph, NE14%10000m1036hPa78%
22-Apr-2024 00:00Few Clouds-3°C7 mph, NE12%10000m1036hPa89%
22-Apr-2024 03:00Clear Sky-5°C4 mph, NE7%10000m1036hPa93%
22-Apr-2024 06:00Clear Sky-2°C7 mph, NE6%10000m1035hPa69%
22-Apr-2024 09:00Scattered Clouds4°C9 mph, NE38%10000m1033hPa44%
22-Apr-2024 12:00Scattered Clouds7°C7 mph, NE26%10000m1031hPa33%
22-Apr-2024 15:00Broken Clouds7°C9 mph, N84%10000m1029hPa39%
22-Apr-2024 18:00Broken Clouds2°C4 mph, N65%10000m1028hPa62%
22-Apr-2024 21:00Overcast Clouds-1°C2 mph, N100%10000m1027hPa60%